Time;durP1;ratioP1;P1;durP2;ratioP2;P2;SDS_P1;SDS_P2;PMS_P1;PMS_P2;Temp;Humidity;BMP_temperature;BMP_pressure;BME280_temperature;BME280_humidity;BME280_pressure;Samples;Min_cycle;Max_cycle;Signal;HPM_P1;HPM_P2
2023/11/25 00:01:04;;;;;;;3.40;1.70;;;6.70;73.20;;;;;;5047737;28;20603;-52
2023/11/25 00:03:30;;;;;;;2.07;1.23;;;6.80;73.50;;;;;;5048948;28;20442;-51
2023/11/25 00:05:55;;;;;;;3.87;1.77;;;6.90;73.30;;;;;;5048408;28;20419;-52
2023/11/25 00:08:21;;;;;;;4.07;1.43;;;7.00;73.10;;;;;;5048102;28;20220;-49
2023/11/25 00:10:47;;;;;;;1.80;1.37;;;6.80;73.10;;;;;;5049141;28;20238;-53
2023/11/25 00:13:14;;;;;;;3.40;1.50;;;7.00;73.40;;;;;;5048119;28;20225;-49
2023/11/25 00:15:40;;;;;;;6.03;1.43;;;6.80;73.30;;;;;;5049420;28;21284;-51
2023/11/25 00:18:07;;;;;;;5.47;1.63;;;6.80;74.00;;;;;;5045586;28;20435;-49
2023/11/25 00:20:36;;;;;;;2.50;1.60;;;6.70;73.90;;;;;;5047626;28;20579;-49
2023/11/25 00:23:02;;;;;;;2.60;1.13;;;6.70;74.40;;;;;;5038053;28;20461;-51
2023/11/25 00:25:27;;;;;;;1.60;1.40;;;6.80;74.60;;;;;;5043199;28;20442;-49
2023/11/25 00:27:53;;;;;;;1.53;1.40;;;6.90;74.10;;;;;;5043024;28;20451;-49
2023/11/25 00:30:18;;;;;;;2.60;1.33;;;7.00;73.90;;;;;;5045839;28;20275;-50
2023/11/25 00:32:44;;;;;;;5.40;1.23;;;6.90;73.50;;;;;;5047130;28;20208;-51
2023/11/25 00:35:14;;;;;;;3.67;1.30;;;7.00;73.20;;;;;;5049890;28;20478;-49
2023/11/25 00:37:40;;;;;;;2.00;1.00;;;7.10;72.80;;;;;;5047782;28;20223;-50
2023/11/25 00:40:15;;;;;;;2.40;1.40;;;7.10;72.10;;;;;;5041867;28;20494;-51
2023/11/25 00:42:41;;;;;;;3.90;1.53;;;7.20;71.80;;;;;;5045154;28;20482;-53
2023/11/25 00:45:10;;;;;;;2.47;1.43;;;7.30;70.70;;;;;;5049460;28;20455;-55
2023/11/25 00:47:36;;;;;;;2.70;1.30;;;7.10;70.80;;;;;;5045425;28;20196;-49
2023/11/25 00:50:04;;;;;;;1.50;1.40;;;7.10;71.00;;;;;;5048352;28;20966;-49
2023/11/25 00:52:30;;;;;;;6.03;1.53;;;7.30;70.80;;;;;;5043441;28;20443;-50
2023/11/25 00:54:56;;;;;;;4.27;1.10;;;7.30;70.30;;;;;;5049191;28;20542;-50
2023/11/25 00:57:21;;;;;;;1.87;1.23;;;7.40;70.20;;;;;;5044906;28;20181;-49
2023/11/25 00:59:47;;;;;;;3.27;1.13;;;7.50;69.70;;;;;;5045689;28;20716;-53
2023/11/25 01:02:13;;;;;;;1.77;1.20;;;7.50;69.50;;;;;;5048726;28;20208;-50
2023/11/25 01:04:40;;;;;;;2.87;1.30;;;7.60;69.60;;;;;;5042082;28;20714;-53
2023/11/25 01:07:06;;;;;;;1.73;1.20;;;7.70;69.10;;;;;;5048547;28;20435;-48
2023/11/25 01:09:32;;;;;;;2.47;1.17;;;7.70;68.70;;;;;;5045526;28;21127;-50
2023/11/25 01:11:57;;;;;;;2.47;1.27;;;7.50;69.80;;;;;;5047089;28;20191;-53
2023/11/25 01:14:23;;;;;;;2.50;1.30;;;7.50;69.30;;;;;;5045564;28;20242;-50
2023/11/25 01:16:52;;;;;;;3.83;1.13;;;7.50;69.20;;;;;;5045733;28;20176;-50
2023/11/25 01:19:17;;;;;;;3.37;1.20;;;7.50;68.50;;;;;;5047709;28;20208;-49
2023/11/25 01:21:43;;;;;;;3.60;1.40;;;7.40;68.40;;;;;;5044826;28;20850;-54
2023/11/25 01:24:11;;;;;;;2.80;1.10;;;7.40;68.60;;;;;;5048445;28;20184;-49
2023/11/25 01:26:40;;;;;;;2.33;1.00;;;7.20;68.40;;;;;;5042466;28;20562;-51
2023/11/25 01:29:06;;;;;;;2.27;0.90;;;7.00;68.30;;;;;;5046545;28;20470;-49
2023/11/25 01:31:32;;;;;;;4.00;1.40;;;7.00;68.60;;;;;;5048334;28;20455;-49
2023/11/25 01:33:58;;;;;;;3.83;1.40;;;7.00;68.80;;;;;;5043834;28;20467;-49
2023/11/25 01:36:25;;;;;;;1.30;0.90;;;7.00;67.90;;;;;;5043584;28;20462;-49
2023/11/25 01:38:50;;;;;;;1.90;1.00;;;6.90;67.00;;;;;;5042546;28;20220;-51
2023/11/25 01:41:17;;;;;;;4.00;1.00;;;6.80;67.50;;;;;;5045991;28;20853;-50
2023/11/25 01:43:42;;;;;;;2.10;0.73;;;6.90;67.50;;;;;;5042738;28;20176;-50
2023/11/25 01:46:08;;;;;;;3.67;1.23;;;6.90;67.10;;;;;;5038333;28;20959;-50
2023/11/25 01:48:35;;;;;;;3.97;1.00;;;7.10;66.50;;;;;;5039750;28;20224;-49
2023/11/25 01:51:02;;;;;;;3.00;1.03;;;7.20;65.60;;;;;;5039329;28;20795;-51
2023/11/25 01:53:28;;;;;;;4.93;1.17;;;7.30;65.10;;;;;;5041310;28;20447;-50
2023/11/25 01:55:55;;;;;;;2.10;1.33;;;7.30;65.30;;;;;;5045033;28;20446;-52
2023/11/25 01:58:21;;;;;;;3.30;1.30;;;7.40;65.10;;;;;;5039461;28;20479;-52
2023/11/25 02:00:49;;;;;;;2.20;1.00;;;7.30;64.50;;;;;;5047414;28;20466;-51
2023/11/25 02:03:15;;;;;;;2.13;1.10;;;7.30;64.70;;;;;;5036752;28;20220;-52
2023/11/25 02:05:42;;;;;;;1.07;1.00;;;7.40;64.40;;;;;;5038898;28;20872;-53
2023/11/25 02:08:09;;;;;;;1.00;0.90;;;7.40;63.90;;;;;;5037628;28;20523;-49
2023/11/25 02:10:34;;;;;;;1.50;1.27;;;7.60;63.50;;;;;;5036524;28;20502;-51
2023/11/25 02:13:08;;;;;;;4.83;1.30;;;7.80;63.00;;;;;;5045869;28;20419;-50
2023/11/25 02:15:37;;;;;;;3.77;1.33;;;7.80;62.40;;;;;;5045312;28;20180;-51
2023/11/25 02:18:03;;;;;;;3.20;1.20;;;7.60;62.70;;;;;;5045928;28;20878;-49
2023/11/25 02:20:42;;;;;;;3.30;1.30;;;7.70;62.90;;;;;;5048142;28;20463;-50
2023/11/25 02:23:24;;;;;;;2.40;1.30;;;7.40;63.20;;;;;;5044752;28;20326;-49
2023/11/25 02:25:52;;;;;;;6.00;1.77;;;7.40;63.40;;;;;;5044801;28;20442;-50
2023/11/25 02:28:21;;;;;;;5.07;1.10;;;7.40;63.40;;;;;;5046877;28;20443;-50
2023/11/25 02:30:48;;;;;;;1.87;1.40;;;7.60;62.90;;;;;;5046548;28;20430;-51
2023/11/25 02:33:14;;;;;;;4.17;1.47;;;7.40;62.90;;;;;;5046817;28;20442;-50
2023/11/25 02:35:42;;;;;;;3.57;1.57;;;7.60;62.50;;;;;;5042080;28;20967;-50
2023/11/25 02:38:11;;;;;;;1.87;1.37;;;7.50;62.20;;;;;;5047254;28;20497;-51
2023/11/25 02:40:37;;;;;;;1.80;1.07;;;7.50;62.30;;;;;;5045685;28;20453;-49
2023/11/25 02:43:04;;;;;;;8.27;2.13;;;7.40;62.20;;;;;;5044013;28;20470;-50
2023/11/25 02:45:29;;;;;;;3.63;1.67;;;7.60;62.90;;;;;;5045093;28;20949;-50
2023/11/25 02:47:55;;;;;;;3.33;1.90;;;7.50;61.90;;;;;;5042068;28;20431;-49
2023/11/25 02:50:21;;;;;;;4.80;1.70;;;7.60;62.00;;;;;;5040914;28;20265;-50
2023/11/25 02:52:47;;;;;;;2.83;1.63;;;7.70;61.80;;;;;;5041687;28;20200;-50
2023/11/25 02:55:12;;;;;;;4.67;2.57;;;7.70;61.70;;;;;;5040862;28;20447;-49
2023/11/25 02:57:43;;;;;;;3.10;1.87;;;7.70;61.50;;;;;;5038207;28;20275;-51
2023/11/25 03:02:53;;;;;;;5.90;1.40;;;7.90;60.70;;;;;;5038761;28;20517;-54
2023/11/25 03:05:19;;;;;;;1.80;1.20;;;8.00;60.60;;;;;;5036709;28;20524;-49
2023/11/25 03:07:44;;;;;;;1.67;1.33;;;8.00;60.30;;;;;;5043279;28;20439;-50
2023/11/25 03:10:10;;;;;;;3.23;1.20;;;8.10;60.10;;;;;;5038917;28;20209;-51
2023/11/25 03:12:41;;;;;;;2.93;1.37;;;7.90;60.20;;;;;;5038503;28;20267;-49
2023/11/25 03:15:07;;;;;;;4.30;1.13;;;7.90;60.40;;;;;;5040640;28;20538;-50
2023/11/25 03:17:33;;;;;;;4.37;1.30;;;7.60;60.80;;;;;;5037137;28;20526;-50
2023/11/25 03:19:58;;;;;;;2.17;1.03;;;7.70;61.00;;;;;;5043364;28;20526;-52
2023/11/25 03:22:25;;;;;;;2.67;1.53;;;7.70;61.30;;;;;;5043171;28;20247;-50
2023/11/25 03:24:51;;;;;;;3.20;1.50;;;7.70;61.40;;;;;;5050330;28;20196;-49
2023/11/25 03:27:16;;;;;;;5.20;1.40;;;7.60;61.60;;;;;;5050192;28;20822;-52
2023/11/25 03:29:42;;;;;;;4.63;1.47;;;7.50;62.20;;;;;;5051290;28;20211;-49
2023/11/25 03:32:09;;;;;;;4.30;1.40;;;7.50;62.60;;;;;;5049575;28;20188;-50
2023/11/25 03:34:34;;;;;;;2.60;1.30;;;7.40;62.80;;;;;;5050021;28;20193;-54
2023/11/25 03:37:00;;;;;;;8.83;1.43;;;7.50;62.90;;;;;;5046104;28;20443;-49
2023/11/25 03:39:26;;;;;;;3.80;2.17;;;7.50;62.90;;;;;;5050093;28;20219;-49
2023/11/25 03:41:52;;;;;;;3.13;1.70;;;7.60;62.80;;;;;;5049378;28;20311;-50
2023/11/25 03:44:18;;;;;;;3.63;1.90;;;7.50;62.70;;;;;;5051117;28;20530;-50
2023/11/25 03:46:43;;;;;;;3.53;1.77;;;7.40;62.90;;;;;;5048662;28;20195;-50
2023/11/25 03:49:10;;;;;;;5.00;1.77;;;7.50;63.00;;;;;;5049590;28;20208;-51
2023/11/25 03:51:36;;;;;;;3.90;1.80;;;7.60;62.80;;;;;;5044938;28;20211;-50
2023/11/25 03:54:01;;;;;;;6.97;3.20;;;7.80;62.10;;;;;;5045836;28;20981;-49
2023/11/25 03:56:27;;;;;;;6.87;2.10;;;7.80;61.70;;;;;;5045256;28;20458;-51
2023/11/25 03:58:54;;;;;;;3.23;1.30;;;7.70;61.60;;;;;;5050108;28;20223;-50
2023/11/25 04:01:19;;;;;;;1.83;1.03;;;7.70;61.60;;;;;;5048983;28;20292;-49
2023/11/25 04:03:45;;;;;;;2.30;1.90;;;7.70;62.10;;;;;;5050426;28;20859;-51
2023/11/25 04:06:12;;;;;;;3.30;2.00;;;7.70;62.10;;;;;;5049650;28;20188;-53
2023/11/25 04:08:39;;;;;;;7.67;2.30;;;7.70;61.90;;;;;;5049865;28;20224;-50
2023/11/25 04:11:05;;;;;;;2.53;1.60;;;7.60;62.30;;;;;;5049046;28;20486;-51
2023/11/25 04:13:31;;;;;;;4.63;1.90;;;7.60;62.30;;;;;;5049564;28;20466;-55
2023/11/25 04:15:56;;;;;;;6.97;2.47;;;7.70;62.20;;;;;;5049099;28;20923;-51
2023/11/25 04:18:22;;;;;;;5.43;1.77;;;7.60;61.90;;;;;;5049191;28;20256;-49
2023/11/25 04:20:48;;;;;;;5.80;1.90;;;7.60;62.10;;;;;;5039728;28;20200;-56
2023/11/25 04:23:15;;;;;;;5.47;1.80;;;7.70;62.20;;;;;;5045536;28;20221;-49
2023/11/25 04:25:43;;;;;;;4.23;2.10;;;7.70;61.60;;;;;;5044131;28;20975;-52
2023/11/25 04:28:11;;;;;;;4.27;1.80;;;7.60;61.70;;;;;;5041958;28;21097;-50
2023/11/25 04:30:38;;;;;;;2.63;1.70;;;7.50;62.20;;;;;;5042943;28;20438;-53
2023/11/25 04:33:04;;;;;;;4.53;2.10;;;7.40;62.60;;;;;;5042550;28;20461;-52
2023/11/25 04:35:30;;;;;;;3.30;1.60;;;7.50;62.40;;;;;;5049823;28;20423;-49
2023/11/25 04:37:56;;;;;;;3.67;2.30;;;7.40;62.60;;;;;;5044892;28;20426;-49
2023/11/25 04:40:22;;;;;;;2.93;2.20;;;7.50;62.90;;;;;;5047422;28;20212;-49
2023/11/25 04:42:48;;;;;;;2.10;1.57;;;7.60;62.20;;;;;;5048889;28;20551;-55
2023/11/25 04:45:18;;;;;;;5.13;2.07;;;7.70;61.90;;;;;;5044653;28;20188;-49
2023/11/25 04:47:44;;;;;;;7.00;2.50;;;7.70;61.60;;;;;;5043864;28;20530;-55
2023/11/25 04:50:12;;;;;;;2.60;1.70;;;7.70;62.40;;;;;;5041816;28;20497;-50
2023/11/25 04:52:38;;;;;;;5.90;2.20;;;7.80;61.10;;;;;;5043109;28;20451;-51
2023/11/25 04:55:05;;;;;;;3.20;1.63;;;7.90;60.70;;;;;;5045817;28;20450;-51
2023/11/25 04:57:31;;;;;;;5.33;2.10;;;7.90;60.20;;;;;;5047640;28;20443;-49
2023/11/25 04:59:56;;;;;;;4.67;2.47;;;8.00;60.10;;;;;;5046162;28;20974;-50
2023/11/25 05:02:22;;;;;;;2.50;1.70;;;7.90;60.00;;;;;;5048724;28;20597;-49
2023/11/25 05:04:47;;;;;;;4.33;2.03;;;8.00;59.80;;;;;;5048330;28;20185;-52
2023/11/25 05:07:13;;;;;;;5.07;2.30;;;7.80;59.90;;;;;;5049220;28;20268;-49
2023/11/25 05:09:41;;;;;;;7.13;2.03;;;7.80;59.90;;;;;;5045812;28;20207;-49
2023/11/25 05:12:07;;;;;;;5.47;1.80;;;7.70;60.00;;;;;;5046405;28;20189;-49
2023/11/25 05:14:36;;;;;;;1.70;1.60;;;7.80;59.90;;;;;;5046602;28;20435;-49
2023/11/25 05:17:01;;;;;;;4.77;1.90;;;7.70;59.60;;;;;;5045776;28;20553;-49
2023/11/25 05:19:27;;;;;;;3.87;1.40;;;7.70;59.70;;;;;;5045852;28;20727;-49
2023/11/25 05:21:53;;;;;;;3.87;1.60;;;7.70;59.50;;;;;;5047133;28;20258;-49
2023/11/25 05:24:20;;;;;;;3.67;1.50;;;7.60;59.60;;;;;;5049813;28;20188;-49
2023/11/25 05:26:45;;;;;;;4.93;1.33;;;7.70;59.50;;;;;;5046303;28;20419;-50
2023/11/25 05:29:11;;;;;;;4.17;1.43;;;7.70;59.30;;;;;;5047995;28;20450;-51
2023/11/25 05:31:36;;;;;;;2.50;1.67;;;7.80;59.20;;;;;;5043937;28;20585;-50
2023/11/25 05:34:05;;;;;;;2.90;1.67;;;7.90;58.80;;;;;;5044711;28;20212;-51
2023/11/25 05:36:32;;;;;;;2.40;1.80;;;7.80;58.80;;;;;;5048381;28;20241;-51
2023/11/25 05:38:59;;;;;;;4.80;1.53;;;7.90;59.00;;;;;;5045034;28;20890;-50
2023/11/25 05:41:27;;;;;;;2.77;1.50;;;7.90;58.60;;;;;;5048100;28;20589;-49
2023/11/25 05:43:53;;;;;;;3.70;1.13;;;7.90;58.60;;;;;;5039842;28;20889;-50
2023/11/25 05:46:23;;;;;;;5.23;1.70;;;7.90;58.30;;;;;;5046540;28;20483;-48
2023/11/25 05:48:52;;;;;;;3.80;1.60;;;7.90;58.40;;;;;;5044255;28;20208;-52
2023/11/25 05:51:18;;;;;;;4.53;1.93;;;7.80;58.40;;;;;;5044062;28;20416;-48
2023/11/25 05:53:44;;;;;;;2.10;1.50;;;7.80;58.40;;;;;;5049125;28;20439;-49
2023/11/25 05:56:09;;;;;;;3.80;2.87;;;7.70;58.80;;;;;;5041060;28;20428;-50
2023/11/25 05:58:35;;;;;;;3.87;2.67;;;7.70;58.70;;;;;;5043208;28;20459;-49
2023/11/25 06:01:02;;;;;;;4.43;1.90;;;7.70;58.80;;;;;;5041858;28;20262;-54
2023/11/25 06:03:28;;;;;;;3.43;1.30;;;7.60;58.90;;;;;;5046433;28;20662;-49
2023/11/25 06:05:53;;;;;;;5.10;2.23;;;7.40;59.20;;;;;;5049054;28;20526;-52
2023/11/25 06:08:20;;;;;;;6.20;2.30;;;7.40;59.60;;;;;;5047680;28;20188;-49
2023/11/25 06:10:48;;;;;;;5.03;1.47;;;7.30;59.70;;;;;;5045500;28;20268;-51
2023/11/25 06:13:15;;;;;;;7.00;1.60;;;7.40;59.60;;;;;;5042802;28;20467;-49
2023/11/25 06:15:40;;;;;;;4.83;1.60;;;7.40;59.50;;;;;;5043685;28;20645;-53
2023/11/25 06:18:07;;;;;;;6.77;2.00;;;7.50;59.80;;;;;;5044863;28;20518;-51
2023/11/25 06:20:34;;;;;;;1.87;1.50;;;7.80;59.70;;;;;;5046404;28;20707;-51
2023/11/25 06:23:00;;;;;;;8.00;4.93;;;7.90;59.30;;;;;;5045737;28;20918;-48
2023/11/25 06:25:26;;;;;;;8.50;3.50;;;7.90;59.10;;;;;;5045429;28;20475;-49
2023/11/25 06:27:52;;;;;;;7.50;4.10;;;8.00;59.10;;;;;;5043792;28;20475;-49
2023/11/25 06:30:18;;;;;;;3.80;2.87;;;8.10;58.90;;;;;;5040678;28;20201;-48
2023/11/25 06:32:43;;;;;;;4.30;2.83;;;8.30;58.90;;;;;;5041752;28;20431;-50
2023/11/25 06:35:09;;;;;;;3.73;1.60;;;8.50;58.50;;;;;;5035403;28;20216;-53
2023/11/25 06:37:39;;;;;;;4.77;1.77;;;8.60;57.90;;;;;;5043105;28;20241;-51
2023/11/25 06:40:06;;;;;;;5.90;1.90;;;8.70;57.80;;;;;;5040071;28;20224;-52
2023/11/25 06:42:32;;;;;;;2.43;1.53;;;8.80;58.10;;;;;;5036557;28;20913;-49
2023/11/25 06:44:58;;;;;;;6.57;2.13;;;8.90;57.20;;;;;;5039933;28;20506;-53
2023/11/25 06:47:24;;;;;;;3.10;1.87;;;9.00;57.10;;;;;;5036099;28;20184;-52
2023/11/25 06:49:51;;;;;;;2.33;1.70;;;9.10;57.10;;;;;;5037262;28;20209;-49
2023/11/25 06:52:17;;;;;;;4.20;1.90;;;9.10;57.10;;;;;;5042139;28;20185;-51
2023/11/25 06:54:42;;;;;;;4.30;1.47;;;9.20;56.70;;;;;;5042497;28;20958;-50
2023/11/25 06:57:08;;;;;;;3.43;1.77;;;9.30;56.50;;;;;;5042311;28;20560;-49
2023/11/25 06:59:34;;;;;;;3.40;1.80;;;9.40;56.40;;;;;;5040704;28;20220;-56
2023/11/25 07:01:59;;;;;;;6.50;1.77;;;9.40;55.70;;;;;;5038822;28;20218;-50
2023/11/25 07:04:26;;;;;;;3.30;1.57;;;9.20;55.60;;;;;;5037084;28;20626;-51
2023/11/25 07:06:51;;;;;;;2.37;1.53;;;9.20;55.70;;;;;;5038920;28;20276;-51
2023/11/25 07:09:18;;;;;;;3.60;1.77;;;9.30;55.80;;;;;;5041217;28;20560;-54
2023/11/25 07:11:44;;;;;;;4.00;1.73;;;9.30;55.50;;;;;;5041684;28;20196;-53
2023/11/25 07:14:10;;;;;;;4.87;1.60;;;9.10;55.40;;;;;;5037647;28;20804;-52
2023/11/25 07:16:36;;;;;;;5.83;1.63;;;9.00;55.90;;;;;;5040456;28;20439;-49
2023/11/25 07:19:04;;;;;;;3.30;1.33;;;9.00;56.00;;;;;;5037529;28;20204;-49
2023/11/25 07:21:31;;;;;;;4.07;1.80;;;8.90;56.00;;;;;;5038076;28;20240;-50
2023/11/25 07:23:56;;;;;;;6.50;1.70;;;9.00;56.20;;;;;;5039459;28;20419;-50
2023/11/25 07:26:22;;;;;;;3.30;1.50;;;9.10;56.20;;;;;;5034708;28;20426;-51
2023/11/25 07:28:48;;;;;;;9.30;1.60;;;9.20;56.00;;;;;;5039075;28;20228;-51
2023/11/25 07:31:13;;;;;;;3.10;1.50;;;9.20;55.80;;;;;;5031992;28;20709;-52
2023/11/25 07:33:39;;;;;;;6.13;2.17;;;9.30;55.90;;;;;;5035283;28;20275;-51
2023/11/25 07:36:06;;;;;;;2.30;1.40;;;9.30;55.70;;;;;;5036079;28;20286;-50
2023/11/25 07:38:32;;;;;;;2.50;1.67;;;9.30;55.60;;;;;;5036778;28;20336;-52
2023/11/25 07:40:58;;;;;;;2.80;2.00;;;9.30;55.60;;;;;;5036190;28;20410;-50
2023/11/25 07:43:24;;;;;;;3.93;2.33;;;9.30;55.70;;;;;;5037101;28;21111;-51
2023/11/25 07:45:50;;;;;;;3.50;1.70;;;9.30;55.60;;;;;;5039314;28;20572;-52
2023/11/25 07:48:15;;;;;;;6.17;2.13;;;9.10;55.90;;;;;;5034013;28;20420;-51
2023/11/25 07:50:45;;;;;;;8.93;1.70;;;9.00;56.20;;;;;;5039538;28;20184;-54
2023/11/25 07:53:11;;;;;;;2.23;1.33;;;8.60;56.50;;;;;;5037110;28;20641;-54
2023/11/25 07:55:37;;;;;;;3.27;1.47;;;8.30;57.20;;;;;;5038423;28;20925;-50
2023/11/25 07:58:02;;;;;;;3.90;1.60;;;8.20;57.80;;;;;;5037418;28;20427;-50
2023/11/25 08:00:28;;;;;;;1.90;1.50;;;8.10;57.90;;;;;;5036758;28;20243;-51
2023/11/25 08:02:55;;;;;;;4.93;1.80;;;8.10;58.40;;;;;;5036767;28;20303;-49
2023/11/25 08:05:22;;;;;;;2.50;1.70;;;8.20;58.40;;;;;;5033912;28;20223;-49
2023/11/25 08:07:49;;;;;;;6.40;2.27;;;8.20;58.30;;;;;;5037491;28;20435;-52
2023/11/25 08:10:16;;;;;;;3.73;1.90;;;8.10;58.40;;;;;;5036940;28;20460;-49
2023/11/25 08:12:42;;;;;;;3.00;1.50;;;8.10;58.50;;;;;;5040972;28;20423;-53
2023/11/25 08:15:09;;;;;;;3.47;1.40;;;7.90;58.60;;;;;;5040944;28;20529;-50
2023/11/25 08:17:36;;;;;;;3.03;2.00;;;7.90;59.10;;;;;;5039277;28;20444;-49
2023/11/25 08:20:01;;;;;;;6.47;2.27;;;8.00;59.20;;;;;;5040379;28;20458;-49
2023/11/25 08:22:27;;;;;;;6.50;1.83;;;8.10;59.20;;;;;;5039317;28;20562;-50
2023/11/25 08:24:56;;;;;;;5.57;1.77;;;8.30;59.00;;;;;;5043049;28;20192;-50
2023/11/25 08:27:22;;;;;;;3.47;1.60;;;8.40;58.50;;;;;;5036476;28;20181;-49
2023/11/25 08:29:47;;;;;;;3.33;1.20;;;8.30;58.40;;;;;;5043583;28;20431;-49
2023/11/25 08:32:13;;;;;;;3.27;1.50;;;8.30;58.80;;;;;;5040123;28;20428;-50
2023/11/25 08:34:38;;;;;;;2.57;1.60;;;8.20;58.90;;;;;;5041637;28;20191;-51
2023/11/25 08:37:05;;;;;;;5.30;2.93;;;8.20;59.10;;;;;;5041278;28;20208;-50
2023/11/25 08:39:32;;;;;;;6.00;4.13;;;8.10;59.30;;;;;;5039645;28;20208;-50
2023/11/25 08:41:59;;;;;;;4.30;4.00;;;8.10;59.20;;;;;;5040146;28;20859;-51
2023/11/25 08:44:25;;;;;;;4.70;2.60;;;8.10;59.20;;;;;;5040696;28;20427;-50
2023/11/25 08:46:53;;;;;;;3.90;2.23;;;8.10;59.20;;;;;;5039788;28;20428;-49
2023/11/25 08:49:21;;;;;;;5.77;1.83;;;8.30;59.00;;;;;;5042506;28;20463;-49
2023/11/25 08:51:49;;;;;;;3.83;2.07;;;8.10;58.80;;;;;;5046696;28;20431;-50
2023/11/25 08:54:20;;;;;;;2.83;2.00;;;8.00;59.10;;;;;;5040650;28;21092;-51
2023/11/25 08:56:46;;;;;;;7.13;3.07;;;8.20;59.20;;;;;;5042021;28;20451;-50
2023/11/25 08:59:17;;;;;;;5.10;1.90;;;8.20;59.00;;;;;;5040497;28;21057;-50
2023/11/25 09:01:43;;;;;;;4.33;1.70;;;8.40;59.20;;;;;;5044287;28;20616;-50
2023/11/25 09:04:13;;;;;;;3.10;2.07;;;8.40;59.50;;;;;;5040631;28;20503;-52
2023/11/25 09:06:39;;;;;;;3.17;1.83;;;8.60;59.20;;;;;;5041216;28;20447;-50
2023/11/25 09:09:08;;;;;;;5.50;2.00;;;8.70;58.90;;;;;;5044793;28;20435;-55
2023/11/25 09:11:35;;;;;;;2.37;1.40;;;8.40;58.60;;;;;;5044517;28;20529;-51
2023/11/25 09:14:03;;;;;;;2.87;1.10;;;8.40;59.10;;;;;;5043081;28;20446;-51
2023/11/25 09:16:29;;;;;;;4.73;2.10;;;8.30;59.40;;;;;;5041948;28;20451;-51
2023/11/25 09:18:55;;;;;;;2.83;1.50;;;8.20;60.10;;;;;;5042765;28;20963;-51
2023/11/25 09:21:20;;;;;;;3.87;1.80;;;8.20;60.00;;;;;;5042264;28;20227;-50
2023/11/25 09:23:46;;;;;;;5.83;1.90;;;8.30;59.70;;;;;;5044301;28;20712;-52
2023/11/25 09:26:12;;;;;;;3.33;1.57;;;8.30;59.10;;;;;;5043851;28;20570;-49
2023/11/25 09:28:37;;;;;;;5.90;1.73;;;8.40;59.20;;;;;;5044861;28;20691;-52
2023/11/25 09:31:03;;;;;;;4.00;2.40;;;8.50;59.50;;;;;;5044298;28;20246;-51
2023/11/25 09:33:29;;;;;;;3.87;3.50;;;8.70;59.20;;;;;;5044931;28;20192;-52
2023/11/25 09:35:55;;;;;;;9.37;2.20;;;9.00;58.50;;;;;;5043790;28;20445;-55
2023/11/25 09:38:21;;;;;;;5.00;1.70;;;9.10;58.30;;;;;;5039638;28;20181;-53
2023/11/25 09:40:47;;;;;;;3.43;1.43;;;9.00;57.40;;;;;;5044206;28;20193;-53
2023/11/25 09:43:13;;;;;;;6.07;4.77;;;8.80;56.90;;;;;;5041131;28;20455;-50
2023/11/25 09:45:39;;;;;;;3.73;3.30;;;9.00;56.90;;;;;;5044067;28;20307;-53
2023/11/25 09:48:05;;;;;;;3.93;1.40;;;9.10;57.10;;;;;;5035548;28;20451;-54
2023/11/25 09:50:30;;;;;;;9.27;2.20;;;8.90;56.00;;;;;;5041486;28;21310;-54
2023/11/25 09:52:59;;;;;;;4.40;1.23;;;9.00;56.30;;;;;;5040939;28;20552;-51
2023/11/25 09:55:27;;;;;;;2.53;1.20;;;9.20;56.10;;;;;;5042600;28;20614;-52
2023/11/25 09:58:05;;;;;;;3.77;1.60;;;8.90;55.50;;;;;;5042556;28;20447;-55
2023/11/25 10:00:32;;;;;;;5.83;1.50;;;8.90;56.50;;;;;;5042546;28;20466;-52
2023/11/25 10:02:59;;;;;;;8.73;2.20;;;8.90;56.80;;;;;;5037451;28;20573;-54
2023/11/25 10:05:26;;;;;;;4.30;1.60;;;8.80;57.50;;;;;;5039811;28;21284;-55
2023/11/25 10:07:52;;;;;;;3.87;1.77;;;8.70;58.00;;;;;;5042530;28;20926;-52
2023/11/25 10:10:23;;;;;;;8.00;2.23;;;8.60;58.40;;;;;;5035745;28;20467;-54
2023/11/25 10:12:49;;;;;;;4.77;1.77;;;8.80;58.60;;;;;;5043542;28;20196;-51
2023/11/25 10:15:15;;;;;;;8.87;2.60;;;8.90;58.50;;;;;;5042512;28;20439;-53
2023/11/25 10:17:44;;;;;;;8.50;2.37;;;9.20;58.30;;;;;;5046100;28;20435;-53
2023/11/25 10:20:12;;;;;;;4.27;1.57;;;9.30;57.70;;;;;;5041612;28;20544;-54
2023/11/25 10:22:46;;;;;;;5.60;2.33;;;9.60;57.40;;;;;;5047877;28;20485;-54
2023/11/25 10:25:12;;;;;;;6.07;1.70;;;9.60;57.20;;;;;;5042971;28;20434;-55
2023/11/25 10:27:38;;;;;;;5.90;2.40;;;9.60;57.00;;;;;;5047724;28;20439;-53
2023/11/25 10:30:05;;;;;;;5.43;1.90;;;9.30;57.00;;;;;;5045083;28;20211;-54
2023/11/25 10:32:33;;;;;;;3.93;3.43;;;9.40;57.60;;;;;;5046073;28;20516;-51
2023/11/25 10:35:00;;;;;;;8.53;2.80;;;9.40;57.90;;;;;;5045001;28;20426;-51
2023/11/25 10:37:25;;;;;;;5.93;2.33;;;9.30;57.50;;;;;;5040095;28;20455;-53
2023/11/25 10:39:55;;;;;;;4.13;1.60;;;9.50;57.80;;;;;;5046038;28;20470;-53
2023/11/25 10:42:21;;;;;;;10.17;3.03;;;9.60;57.30;;;;;;5045821;28;20223;-55
2023/11/25 10:44:51;;;;;;;9.67;2.60;;;9.50;57.40;;;;;;5044016;28;20462;-54
2023/11/25 10:47:30;;;;;;;12.43;2.83;;;9.40;57.30;;;;;;5038741;28;20443;-49
2023/11/25 10:49:56;;;;;;;9.27;2.37;;;9.50;57.40;;;;;;5041893;28;20451;-55
2023/11/25 10:52:23;;;;;;;5.33;2.13;;;9.60;57.20;;;;;;5047247;28;20453;-53
2023/11/25 10:54:50;;;;;;;11.63;1.87;;;9.60;57.00;;;;;;5036961;28;20195;-51
2023/11/25 10:57:18;;;;;;;5.73;1.80;;;9.40;56.90;;;;;;5044148;28;20473;-53
2023/11/25 10:59:45;;;;;;;7.10;1.77;;;9.10;57.20;;;;;;5046366;28;20965;-52
2023/11/25 11:02:25;;;;;;;6.27;2.90;;;8.90;58.00;;;;;;5044354;28;20479;-54
2023/11/25 11:04:57;;;;;;;5.97;2.10;;;9.30;58.20;;;;;;5041474;28;20498;-56
2023/11/25 11:07:26;;;;;;;6.60;2.30;;;9.40;57.90;;;;;;5043850;28;20438;-50
2023/11/25 11:09:55;;;;;;;10.23;2.10;;;9.40;57.80;;;;;;5043743;28;20461;-53
2023/11/25 11:12:58;;;;;;;7.20;2.50;;;9.80;57.80;;;;;;5045602;28;20454;-51
2023/11/25 11:15:25;;;;;;;6.97;2.20;;;9.90;57.10;;;;;;5046048;28;20447;-51
2023/11/25 11:18:06;;;;;;;10.07;2.73;;;10.10;55.90;;;;;;5044375;28;20456;-55
2023/11/25 11:20:36;;;;;;;7.17;2.10;;;10.20;55.60;;;;;;5041827;28;20447;-53
2023/11/25 11:23:04;;;;;;;5.60;2.90;;;10.10;55.40;;;;;;5040669;28;20570;-53
2023/11/25 11:25:43;;;;;;;5.03;2.07;;;10.10;55.20;;;;;;5043003;28;20461;-54
2023/11/25 11:28:44;;;;;;;10.23;2.80;;;10.00;55.10;;;;;;5043195;28;20435;-55
2023/11/25 11:31:16;;;;;;;6.70;2.40;;;9.50;55.80;;;;;;5005838;28;20451;-51
2023/11/25 11:33:42;;;;;;;10.10;2.40;;;9.20;55.90;;;;;;5042481;28;20439;-51
2023/11/25 11:36:19;;;;;;;7.03;2.40;;;9.10;56.30;;;;;;5042703;28;20868;-51
2023/11/25 11:38:45;;;;;;;4.30;1.97;;;9.20;56.70;;;;;;5043872;28;20255;-51
2023/11/25 11:41:11;;;;;;;7.63;2.10;;;9.10;56.50;;;;;;5044506;28;22397;-54
2023/11/25 11:43:37;;;;;;;6.33;2.00;;;8.90;56.80;;;;;;5041238;28;20217;-55
2023/11/25 11:46:04;;;;;;;8.87;2.33;;;8.70;57.50;;;;;;5040630;28;20648;-53
2023/11/25 11:48:30;;;;;;;4.60;1.90;;;8.80;58.30;;;;;;5044333;28;20478;-51
2023/11/25 11:50:57;;;;;;;9.60;1.93;;;8.80;58.00;;;;;;5047305;28;20966;-54
2023/11/25 11:53:25;;;;;;;7.90;2.10;;;8.80;58.10;;;;;;5050917;28;20469;-52
2023/11/25 11:55:57;;;;;;;9.30;3.43;;;8.50;58.70;;;;;;5047691;28;20427;-55
2023/11/25 11:58:27;;;;;;;7.53;2.00;;;8.30;59.80;;;;;;5041004;28;20440;-50
2023/11/25 12:00:59;;;;;;;4.10;1.80;;;8.00;61.30;;;;;;5041951;28;20493;-53
2023/11/25 12:03:26;;;;;;;4.67;1.70;;;8.00;62.80;;;;;;5050930;28;20461;-52
2023/11/25 12:05:51;;;;;;;6.60;2.13;;;8.00;63.60;;;;;;5048162;28;20454;-52
2023/11/25 12:08:18;;;;;;;9.50;2.40;;;7.70;65.30;;;;;;5049591;28;20411;-56
2023/11/25 12:10:43;;;;;;;3.33;2.00;;;7.60;67.00;;;;;;5047252;28;20711;-51
2023/11/25 12:13:10;;;;;;;4.90;1.60;;;7.70;67.40;;;;;;5040596;28;20525;-55
2023/11/25 12:15:37;;;;;;;4.60;1.83;;;7.90;67.40;;;;;;5047994;28;20733;-51
2023/11/25 12:18:03;;;;;;;5.33;2.17;;;7.80;67.70;;;;;;5048674;28;20439;-54
2023/11/25 12:20:30;;;;;;;5.10;2.17;;;7.70;67.90;;;;;;5045381;28;20570;-51
2023/11/25 12:22:56;;;;;;;3.23;2.60;;;7.70;68.50;;;;;;5043099;28;20477;-51
2023/11/25 12:25:26;;;;;;;3.80;1.80;;;7.70;68.40;;;;;;5046862;28;20435;-53
2023/11/25 12:27:51;;;;;;;5.77;2.53;;;7.80;69.10;;;;;;5046680;28;20443;-52
2023/11/25 12:30:17;;;;;;;9.90;3.10;;;7.90;68.40;;;;;;5046874;28;20486;-55
2023/11/25 12:32:43;;;;;;;6.13;2.60;;;7.90;67.90;;;;;;5049535;28;20717;-51
2023/11/25 12:35:13;;;;;;;5.40;2.70;;;7.70;68.30;;;;;;5048103;28;20814;-54
2023/11/25 12:37:42;;;;;;;8.20;3.00;;;7.60;68.20;;;;;;5047475;28;20180;-51
2023/11/25 12:40:22;;;;;;;9.00;3.30;;;7.50;68.30;;;;;;5039184;28;20513;-54
2023/11/25 12:42:49;;;;;;;4.93;1.97;;;7.50;68.30;;;;;;5047125;28;20478;-53
2023/11/25 12:45:28;;;;;;;5.67;1.40;;;7.40;68.60;;;;;;5047365;28;20510;-53
2023/11/25 12:47:54;;;;;;;4.53;1.77;;;7.40;68.90;;;;;;5049056;28;20430;-53
2023/11/25 12:50:22;;;;;;;3.20;1.50;;;7.60;69.40;;;;;;5046568;28;20475;-51
2023/11/25 12:53:05;;;;;;;4.83;1.63;;;7.60;69.10;;;;;;5044926;28;20431;-53
2023/11/25 12:55:38;;;;;;;5.33;2.40;;;7.80;67.90;;;;;;5048321;28;20451;-50
2023/11/25 12:58:10;;;;;;;3.13;1.80;;;8.00;68.00;;;;;;5045205;28;20938;-53
2023/11/25 13:00:36;;;;;;;7.00;2.10;;;7.90;67.60;;;;;;5048247;28;20449;-53